EGPN

Dundee Airport

Airport
ICAO code
EGPN
IATA Code
DND
Summary
ICAO Region
EUR
ICAO Territory
Location

, Scotland

Serving
Dundee
Elevation
17 ft
Coordinates
56° 27' 9" N , 3° 1' 33" W
Metar
Observation
EGPN 271820Z 30004KT 9999 FEW030 03/02 Q1028
Station
Dundee / Riverside
Date/Time
2023-01-27 18:20:00
Wind direction
300°
Wind speed
04 kts
Lowest cloud amount
few clouds
Temperature
3°C
Dew point
2°C
Humidity
93%
QNH
1028 hPa
Weather condition
n/a

Runways

Designator Length Width Surface Rops
10/28 1400 30 ASP Yes/Yes

Airport map

Aerial View

SKYbrary Partners:

Safety knowledge contributed by: